sensor_id;sensor_type;location;lat;lon;timestamp;P1;durP1;ratioP1;P2;durP2;ratioP2
46613;SDS011;32338;50.430;6.806;2023-04-15T00:01:53;1.13;;;0.40;;
46613;SDS011;32338;50.430;6.806;2023-04-15T00:04:19;6.47;;;0.60;;
46613;SDS011;32338;50.430;6.806;2023-04-15T00:06:50;3.00;;;0.60;;
46613;SDS011;32338;50.430;6.806;2023-04-15T00:09:17;3.22;;;0.68;;
46613;SDS011;32338;50.430;6.806;2023-04-15T00:11:44;4.45;;;0.60;;
46613;SDS011;32338;50.430;6.806;2023-04-15T00:14:11;4.57;;;1.00;;
46613;SDS011;32338;50.430;6.806;2023-04-15T00:16:38;5.72;;;1.30;;
46613;SDS011;32338;50.430;6.806;2023-04-15T00:19:04;17.13;;;6.95;;
46613;SDS011;32338;50.430;6.806;2023-04-15T00:21:31;8.57;;;4.93;;
46613;SDS011;32338;50.430;6.806;2023-04-15T00:23:59;10.15;;;5.78;;
46613;SDS011;32338;50.430;6.806;2023-04-15T00:26:25;13.52;;;6.38;;
46613;SDS011;32338;50.430;6.806;2023-04-15T00:28:52;4.65;;;2.03;;
46613;SDS011;32338;50.430;6.806;2023-04-15T00:31:19;5.15;;;0.82;;
46613;SDS011;32338;50.430;6.806;2023-04-15T00:33:45;5.60;;;0.70;;
46613;SDS011;32338;50.430;6.806;2023-04-15T00:36:12;3.60;;;0.55;;
46613;SDS011;32338;50.430;6.806;2023-04-15T00:38:39;5.10;;;0.80;;
46613;SDS011;32338;50.430;6.806;2023-04-15T00:41:07;2.50;;;0.70;;
46613;SDS011;32338;50.430;6.806;2023-04-15T00:43:35;5.53;;;0.80;;
46613;SDS011;32338;50.430;6.806;2023-04-15T00:46:03;4.05;;;1.52;;
46613;SDS011;32338;50.430;6.806;2023-04-15T00:48:31;10.73;;;3.08;;
46613;SDS011;32338;50.430;6.806;2023-04-15T00:50:57;15.25;;;6.75;;
46613;SDS011;32338;50.430;6.806;2023-04-15T00:53:24;4.63;;;3.28;;
46613;SDS011;32338;50.430;6.806;2023-04-15T00:55:51;5.20;;;2.42;;
46613;SDS011;32338;50.430;6.806;2023-04-15T00:58:19;5.03;;;2.60;;
46613;SDS011;32338;50.430;6.806;2023-04-15T01:00:45;2.53;;;1.70;;
46613;SDS011;32338;50.430;6.806;2023-04-15T01:03:13;3.40;;;1.50;;
46613;SDS011;32338;50.430;6.806;2023-04-15T01:05:40;3.63;;;2.03;;
46613;SDS011;32338;50.430;6.806;2023-04-15T01:08:06;5.43;;;2.13;;
46613;SDS011;32338;50.430;6.806;2023-04-15T01:10:33;3.08;;;1.75;;
46613;SDS011;32338;50.430;6.806;2023-04-15T01:13:00;4.13;;;1.77;;
46613;SDS011;32338;50.430;6.806;2023-04-15T01:15:29;1.55;;;0.80;;
46613;SDS011;32338;50.430;6.806;2023-04-15T01:17:56;4.13;;;1.30;;
46613;SDS011;32338;50.430;6.806;2023-04-15T01:20:23;2.97;;;1.08;;
46613;SDS011;32338;50.430;6.806;2023-04-15T01:22:51;2.10;;;0.80;;
46613;SDS011;32338;50.430;6.806;2023-04-15T01:25:25;1.63;;;0.60;;
46613;SDS011;32338;50.430;6.806;2023-04-15T01:27:56;1.65;;;0.68;;
46613;SDS011;32338;50.430;6.806;2023-04-15T01:30:23;0.98;;;0.50;;
46613;SDS011;32338;50.430;6.806;2023-04-15T01:32:51;2.80;;;0.80;;
46613;SDS011;32338;50.430;6.806;2023-04-15T01:35:17;2.38;;;0.50;;
46613;SDS011;32338;50.430;6.806;2023-04-15T01:37:44;2.20;;;0.40;;
46613;SDS011;32338;50.430;6.806;2023-04-15T01:40:11;0.63;;;0.40;;
46613;SDS011;32338;50.430;6.806;2023-04-15T01:42:40;4.15;;;0.55;;
46613;SDS011;32338;50.430;6.806;2023-04-15T01:45:07;3.40;;;0.57;;
46613;SDS011;32338;50.430;6.806;2023-04-15T01:47:35;1.63;;;0.43;;
46613;SDS011;32338;50.430;6.806;2023-04-15T01:50:01;3.28;;;0.70;;
46613;SDS011;32338;50.430;6.806;2023-04-15T01:52:28;3.60;;;0.60;;
46613;SDS011;32338;50.430;6.806;2023-04-15T01:54:54;2.38;;;0.40;;
46613;SDS011;32338;50.430;6.806;2023-04-15T01:57:21;3.75;;;0.55;;
46613;SDS011;32338;50.430;6.806;2023-04-15T01:59:49;3.45;;;0.50;;
46613;SDS011;32338;50.430;6.806;2023-04-15T02:02:16;2.45;;;0.57;;
46613;SDS011;32338;50.430;6.806;2023-04-15T02:04:42;1.92;;;0.55;;
46613;SDS011;32338;50.430;6.806;2023-04-15T02:07:09;4.95;;;0.70;;
46613;SDS011;32338;50.430;6.806;2023-04-15T02:09:36;1.83;;;0.47;;
46613;SDS011;32338;50.430;6.806;2023-04-15T02:12:02;1.50;;;0.60;;
46613;SDS011;32338;50.430;6.806;2023-04-15T02:14:29;2.88;;;0.57;;
46613;SDS011;32338;50.430;6.806;2023-04-15T02:16:57;1.60;;;0.60;;
46613;SDS011;32338;50.430;6.806;2023-04-15T02:19:31;1.57;;;0.60;;
46613;SDS011;32338;50.430;6.806;2023-04-15T02:21:57;5.10;;;0.65;;
46613;SDS011;32338;50.430;6.806;2023-04-15T02:24:26;1.38;;;0.80;;
46613;SDS011;32338;50.430;6.806;2023-04-15T02:26:52;1.88;;;0.70;;
46613;SDS011;32338;50.430;6.806;2023-04-15T02:29:20;1.35;;;0.40;;
46613;SDS011;32338;50.430;6.806;2023-04-15T02:31:47;2.55;;;0.63;;
46613;SDS011;32338;50.430;6.806;2023-04-15T02:34:14;1.40;;;0.55;;
46613;SDS011;32338;50.430;6.806;2023-04-15T02:36:41;1.88;;;0.45;;
46613;SDS011;32338;50.430;6.806;2023-04-15T02:39:08;1.80;;;0.80;;
46613;SDS011;32338;50.430;6.806;2023-04-15T02:41:35;2.30;;;0.68;;
46613;SDS011;32338;50.430;6.806;2023-04-15T02:44:01;2.50;;;0.68;;
46613;SDS011;32338;50.430;6.806;2023-04-15T02:46:28;1.15;;;0.55;;
46613;SDS011;32338;50.430;6.806;2023-04-15T02:48:54;2.47;;;0.60;;
46613;SDS011;32338;50.430;6.806;2023-04-15T02:51:25;7.05;;;1.27;;
46613;SDS011;32338;50.430;6.806;2023-04-15T02:53:51;3.60;;;0.80;;
46613;SDS011;32338;50.430;6.806;2023-04-15T02:56:18;2.58;;;0.70;;
46613;SDS011;32338;50.430;6.806;2023-04-15T02:58:44;2.22;;;0.75;;
46613;SDS011;32338;50.430;6.806;2023-04-15T03:01:11;2.42;;;0.70;;
46613;SDS011;32338;50.430;6.806;2023-04-15T03:03:38;1.38;;;0.80;;
46613;SDS011;32338;50.430;6.806;2023-04-15T03:06:05;4.28;;;1.63;;
46613;SDS011;32338;50.430;6.806;2023-04-15T03:08:34;4.35;;;2.00;;
46613;SDS011;32338;50.430;6.806;2023-04-15T03:11:01;3.05;;;2.35;;
46613;SDS011;32338;50.430;6.806;2023-04-15T03:13:27;4.60;;;1.48;;
46613;SDS011;32338;50.430;6.806;2023-04-15T03:15:54;4.20;;;1.80;;
46613;SDS011;32338;50.430;6.806;2023-04-15T03:18:21;4.40;;;2.53;;
46613;SDS011;32338;50.430;6.806;2023-04-15T03:20:47;8.70;;;2.80;;
46613;SDS011;32338;50.430;6.806;2023-04-15T03:23:14;4.43;;;2.10;;
46613;SDS011;32338;50.430;6.806;2023-04-15T03:25:43;4.63;;;1.75;;
46613;SDS011;32338;50.430;6.806;2023-04-15T03:28:10;7.32;;;2.97;;
46613;SDS011;32338;50.430;6.806;2023-04-15T03:30:37;5.40;;;3.13;;
46613;SDS011;32338;50.430;6.806;2023-04-15T03:33:03;3.88;;;2.15;;
46613;SDS011;32338;50.430;6.806;2023-04-15T03:35:30;5.75;;;1.83;;
46613;SDS011;32338;50.430;6.806;2023-04-15T03:37:56;5.43;;;2.70;;
46613;SDS011;32338;50.430;6.806;2023-04-15T03:40:23;4.53;;;2.67;;
46613;SDS011;32338;50.430;6.806;2023-04-15T03:42:51;5.35;;;2.17;;
46613;SDS011;32338;50.430;6.806;2023-04-15T03:45:17;5.55;;;2.00;;
46613;SDS011;32338;50.430;6.806;2023-04-15T03:47:44;2.42;;;1.63;;
46613;SDS011;32338;50.430;6.806;2023-04-15T03:50:11;4.45;;;1.85;;
46613;SDS011;32338;50.430;6.806;2023-04-15T03:52:37;5.57;;;1.70;;
46613;SDS011;32338;50.430;6.806;2023-04-15T03:55:04;3.58;;;1.40;;
46613;SDS011;32338;50.430;6.806;2023-04-15T03:57:31;2.83;;;1.58;;
46613;SDS011;32338;50.430;6.806;2023-04-15T04:00:03;6.60;;;3.58;;
46613;SDS011;32338;50.430;6.806;2023-04-15T04:02:31;5.47;;;2.58;;
46613;SDS011;32338;50.430;6.806;2023-04-15T04:04:57;3.92;;;1.80;;
46613;SDS011;32338;50.430;6.806;2023-04-15T04:07:24;5.93;;;1.05;;
46613;SDS011;32338;50.430;6.806;2023-04-15T04:09:50;1.65;;;1.08;;
46613;SDS011;32338;50.430;6.806;2023-04-15T04:12:17;2.03;;;0.80;;
46613;SDS011;32338;50.430;6.806;2023-04-15T04:14:44;3.28;;;0.70;;
46613;SDS011;32338;50.430;6.806;2023-04-15T04:17:12;4.32;;;1.00;;
46613;SDS011;32338;50.430;6.806;2023-04-15T04:19:38;2.95;;;0.95;;
46613;SDS011;32338;50.430;6.806;2023-04-15T04:22:05;7.53;;;1.13;;
46613;SDS011;32338;50.430;6.806;2023-04-15T04:24:32;5.28;;;1.20;;
46613;SDS011;32338;50.430;6.806;2023-04-15T04:26:58;5.68;;;1.80;;
46613;SDS011;32338;50.430;6.806;2023-04-15T04:29:25;3.05;;;0.77;;
46613;SDS011;32338;50.430;6.806;2023-04-15T04:31:51;8.02;;;2.88;;
46613;SDS011;32338;50.430;6.806;2023-04-15T04:34:19;10.27;;;4.70;;
46613;SDS011;32338;50.430;6.806;2023-04-15T04:36:46;4.47;;;1.55;;
46613;SDS011;32338;50.430;6.806;2023-04-15T04:39:12;3.17;;;1.08;;
46613;SDS011;32338;50.430;6.806;2023-04-15T04:41:39;5.65;;;1.48;;
46613;SDS011;32338;50.430;6.806;2023-04-15T04:44:06;2.55;;;1.13;;
46613;SDS011;32338;50.430;6.806;2023-04-15T04:46:32;4.38;;;1.20;;
46613;SDS011;32338;50.430;6.806;2023-04-15T04:48:59;3.65;;;1.20;;
46613;SDS011;32338;50.430;6.806;2023-04-15T04:51:27;6.97;;;1.25;;
46613;SDS011;32338;50.430;6.806;2023-04-15T04:53:53;3.28;;;1.20;;
46613;SDS011;32338;50.430;6.806;2023-04-15T04:56:20;3.70;;;0.98;;
46613;SDS011;32338;50.430;6.806;2023-04-15T04:58:47;2.92;;;1.30;;
46613;SDS011;32338;50.430;6.806;2023-04-15T05:01:13;3.72;;;1.20;;
46613;SDS011;32338;50.430;6.806;2023-04-15T05:03:40;3.72;;;1.10;;
46613;SDS011;32338;50.430;6.806;2023-04-15T05:06:07;3.05;;;1.15;;
46613;SDS011;32338;50.430;6.806;2023-04-15T05:08:34;3.28;;;0.85;;
46613;SDS011;32338;50.430;6.806;2023-04-15T05:11:02;2.63;;;0.80;;
46613;SDS011;32338;50.430;6.806;2023-04-15T05:13:28;1.88;;;0.80;;
46613;SDS011;32338;50.430;6.806;2023-04-15T05:15:55;3.28;;;0.90;;
46613;SDS011;32338;50.430;6.806;2023-04-15T05:18:22;3.63;;;0.90;;
46613;SDS011;32338;50.430;6.806;2023-04-15T05:20:48;1.10;;;0.60;;
46613;SDS011;32338;50.430;6.806;2023-04-15T05:23:15;2.53;;;0.63;;
46613;SDS011;32338;50.430;6.806;2023-04-15T05:25:44;2.20;;;1.00;;
46613;SDS011;32338;50.430;6.806;2023-04-15T05:28:10;4.50;;;1.17;;
46613;SDS011;32338;50.430;6.806;2023-04-15T05:30:37;5.00;;;1.30;;
46613;SDS011;32338;50.430;6.806;2023-04-15T05:33:04;2.50;;;1.00;;
46613;SDS011;32338;50.430;6.806;2023-04-15T05:35:31;5.82;;;0.90;;
46613;SDS011;32338;50.430;6.806;2023-04-15T05:37:57;5.40;;;0.80;;
46613;SDS011;32338;50.430;6.806;2023-04-15T05:40:24;7.07;;;1.00;;
46613;SDS011;32338;50.430;6.806;2023-04-15T05:42:52;4.22;;;0.90;;
46613;SDS011;32338;50.430;6.806;2023-04-15T05:45:19;2.33;;;1.08;;
46613;SDS011;32338;50.430;6.806;2023-04-15T05:47:45;6.68;;;1.10;;
46613;SDS011;32338;50.430;6.806;2023-04-15T05:50:14;3.00;;;1.10;;
46613;SDS011;32338;50.430;6.806;2023-04-15T05:52:41;2.78;;;0.85;;
46613;SDS011;32338;50.430;6.806;2023-04-15T05:55:08;2.17;;;0.90;;
46613;SDS011;32338;50.430;6.806;2023-04-15T05:57:35;1.30;;;0.75;;
46613;SDS011;32338;50.430;6.806;2023-04-15T06:00:03;5.18;;;1.17;;
46613;SDS011;32338;50.430;6.806;2023-04-15T06:02:31;5.97;;;1.45;;
46613;SDS011;32338;50.430;6.806;2023-04-15T06:04:57;3.70;;;1.27;;
46613;SDS011;32338;50.430;6.806;2023-04-15T06:07:24;9.35;;;1.20;;
46613;SDS011;32338;50.430;6.806;2023-04-15T06:09:51;6.45;;;1.73;;
46613;SDS011;32338;50.430;6.806;2023-04-15T06:12:18;4.90;;;1.35;;
46613;SDS011;32338;50.430;6.806;2023-04-15T06:14:44;6.93;;;1.30;;
46613;SDS011;32338;50.430;6.806;2023-04-15T06:17:12;4.78;;;1.38;;
46613;SDS011;32338;50.430;6.806;2023-04-15T06:19:42;2.67;;;1.17;;
46613;SDS011;32338;50.430;6.806;2023-04-15T06:22:08;3.75;;;0.98;;
46613;SDS011;32338;50.430;6.806;2023-04-15T06:24:35;4.85;;;1.20;;
46613;SDS011;32338;50.430;6.806;2023-04-15T06:27:02;1.10;;;0.90;;
46613;SDS011;32338;50.430;6.806;2023-04-15T06:29:28;2.47;;;1.50;;
46613;SDS011;32338;50.430;6.806;2023-04-15T06:31:55;5.47;;;2.30;;
46613;SDS011;32338;50.430;6.806;2023-04-15T06:34:23;3.78;;;3.30;;
46613;SDS011;32338;50.430;6.806;2023-04-15T06:36:50;3.10;;;1.83;;
46613;SDS011;32338;50.430;6.806;2023-04-15T06:39:18;4.97;;;1.75;;
46613;SDS011;32338;50.430;6.806;2023-04-15T06:41:45;2.78;;;1.90;;
46613;SDS011;32338;50.430;6.806;2023-04-15T06:44:12;4.80;;;1.75;;
46613;SDS011;32338;50.430;6.806;2023-04-15T06:46:38;4.97;;;1.70;;
46613;SDS011;32338;50.430;6.806;2023-04-15T06:49:05;5.03;;;1.40;;
46613;SDS011;32338;50.430;6.806;2023-04-15T06:51:34;3.65;;;1.42;;
46613;SDS011;32338;50.430;6.806;2023-04-15T06:54:01;3.58;;;2.20;;
46613;SDS011;32338;50.430;6.806;2023-04-15T06:56:29;6.68;;;2.88;;
46613;SDS011;32338;50.430;6.806;2023-04-15T06:58:56;6.28;;;3.95;;
46613;SDS011;32338;50.430;6.806;2023-04-15T07:01:23;4.03;;;3.17;;
46613;SDS011;32338;50.430;6.806;2023-04-15T07:03:50;4.53;;;1.48;;
46613;SDS011;32338;50.430;6.806;2023-04-15T07:06:16;7.45;;;3.33;;
46613;SDS011;32338;50.430;6.806;2023-04-15T07:08:45;8.52;;;3.63;;
46613;SDS011;32338;50.430;6.806;2023-04-15T07:11:11;4.07;;;2.55;;
46613;SDS011;32338;50.430;6.806;2023-04-15T07:13:38;5.20;;;2.72;;
46613;SDS011;32338;50.430;6.806;2023-04-15T07:16:05;5.93;;;2.72;;
46613;SDS011;32338;50.430;6.806;2023-04-15T07:18:31;4.15;;;2.00;;
46613;SDS011;32338;50.430;6.806;2023-04-15T07:20:58;2.45;;;1.63;;
46613;SDS011;32338;50.430;6.806;2023-04-15T07:23:24;3.67;;;1.75;;
46613;SDS011;32338;50.430;6.806;2023-04-15T07:25:53;4.57;;;1.90;;
46613;SDS011;32338;50.430;6.806;2023-04-15T07:28:19;5.53;;;1.95;;
46613;SDS011;32338;50.430;6.806;2023-04-15T07:30:46;6.10;;;1.63;;
46613;SDS011;32338;50.430;6.806;2023-04-15T07:33:13;4.78;;;1.40;;
46613;SDS011;32338;50.430;6.806;2023-04-15T07:35:40;3.22;;;1.63;;
46613;SDS011;32338;50.430;6.806;2023-04-15T07:38:07;5.32;;;1.13;;
46613;SDS011;32338;50.430;6.806;2023-04-15T07:40:34;4.35;;;1.10;;
46613;SDS011;32338;50.430;6.806;2023-04-15T07:43:02;3.60;;;1.30;;
46613;SDS011;32338;50.430;6.806;2023-04-15T07:45:28;3.85;;;1.23;;
46613;SDS011;32338;50.430;6.806;2023-04-15T07:47:55;2.38;;;1.00;;
46613;SDS011;32338;50.430;6.806;2023-04-15T07:50:22;1.65;;;0.93;;
46613;SDS011;32338;50.430;6.806;2023-04-15T07:52:49;5.60;;;1.23;;
46613;SDS011;32338;50.430;6.806;2023-04-15T07:55:17;4.03;;;1.20;;
46613;SDS011;32338;50.430;6.806;2023-04-15T07:57:47;3.58;;;1.02;;
46613;SDS011;32338;50.430;6.806;2023-04-15T08:00:15;4.90;;;1.20;;
46613;SDS011;32338;50.430;6.806;2023-04-15T08:02:42;3.50;;;1.05;;
46613;SDS011;32338;50.430;6.806;2023-04-15T08:05:10;3.38;;;1.15;;
46613;SDS011;32338;50.430;6.806;2023-04-15T08:07:38;2.53;;;1.15;;
46613;SDS011;32338;50.430;6.806;2023-04-15T08:10:06;1.98;;;1.00;;
46613;SDS011;32338;50.430;6.806;2023-04-15T08:12:33;2.45;;;1.00;;
46613;SDS011;32338;50.430;6.806;2023-04-15T08:14:59;4.45;;;1.00;;
46613;SDS011;32338;50.430;6.806;2023-04-15T08:17:28;4.47;;;1.10;;
46613;SDS011;32338;50.430;6.806;2023-04-15T08:19:55;3.13;;;1.00;;
46613;SDS011;32338;50.430;6.806;2023-04-15T08:22:21;3.15;;;1.00;;
46613;SDS011;32338;50.430;6.806;2023-04-15T08:24:48;3.95;;;0.95;;
46613;SDS011;32338;50.430;6.806;2023-04-15T08:27:15;4.88;;;1.13;;
46613;SDS011;32338;50.430;6.806;2023-04-15T08:29:42;4.30;;;1.40;;
46613;SDS011;32338;50.430;6.806;2023-04-15T08:32:09;2.75;;;0.88;;
46613;SDS011;32338;50.430;6.806;2023-04-15T08:34:37;2.20;;;1.27;;
46613;SDS011;32338;50.430;6.806;2023-04-15T08:37:04;5.88;;;2.13;;
46613;SDS011;32338;50.430;6.806;2023-04-15T08:39:31;7.43;;;1.90;;
46613;SDS011;32338;50.430;6.806;2023-04-15T08:41:59;3.80;;;2.72;;
46613;SDS011;32338;50.430;6.806;2023-04-15T08:44:28;8.00;;;3.13;;
46613;SDS011;32338;50.430;6.806;2023-04-15T08:46:56;6.30;;;2.40;;
46613;SDS011;32338;50.430;6.806;2023-04-15T08:49:26;3.78;;;2.55;;
46613;SDS011;32338;50.430;6.806;2023-04-15T08:51:55;5.43;;;3.33;;
46613;SDS011;32338;50.430;6.806;2023-04-15T08:54:24;5.07;;;3.30;;
46613;SDS011;32338;50.430;6.806;2023-04-15T08:56:52;6.70;;;4.05;;
46613;SDS011;32338;50.430;6.806;2023-04-15T08:59:19;6.18;;;3.58;;
46613;SDS011;32338;50.430;6.806;2023-04-15T09:01:47;4.15;;;3.30;;
46613;SDS011;32338;50.430;6.806;2023-04-15T09:04:14;8.90;;;3.65;;
46613;SDS011;32338;50.430;6.806;2023-04-15T09:06:42;4.35;;;3.50;;
46613;SDS011;32338;50.430;6.806;2023-04-15T09:09:10;4.55;;;3.72;;
46613;SDS011;32338;50.430;6.806;2023-04-15T09:11:38;4.45;;;3.17;;
46613;SDS011;32338;50.430;6.806;2023-04-15T09:14:04;3.78;;;2.90;;
46613;SDS011;32338;50.430;6.806;2023-04-15T09:16:31;5.30;;;3.15;;
46613;SDS011;32338;50.430;6.806;2023-04-15T09:19:21;3.78;;;2.60;;
46613;SDS011;32338;50.430;6.806;2023-04-15T09:21:49;4.35;;;2.38;;
46613;SDS011;32338;50.430;6.806;2023-04-15T09:24:17;2.60;;;2.40;;
46613;SDS011;32338;50.430;6.806;2023-04-15T09:26:44;2.42;;;2.10;;
46613;SDS011;32338;50.430;6.806;2023-04-15T09:29:11;5.60;;;2.10;;
46613;SDS011;32338;50.430;6.806;2023-04-15T09:31:38;2.45;;;2.22;;
46613;SDS011;32338;50.430;6.806;2023-04-15T09:34:06;5.93;;;2.22;;
46613;SDS011;32338;50.430;6.806;2023-04-15T09:36:51;2.50;;;2.30;;
46613;SDS011;32338;50.430;6.806;2023-04-15T09:39:20;4.28;;;2.13;;
46613;SDS011;32338;50.430;6.806;2023-04-15T09:41:47;4.28;;;2.20;;
46613;SDS011;32338;50.430;6.806;2023-04-15T09:44:29;3.83;;;1.67;;
46613;SDS011;32338;50.430;6.806;2023-04-15T09:46:56;3.22;;;2.25;;
46613;SDS011;32338;50.430;6.806;2023-04-15T09:49:23;4.72;;;2.58;;
46613;SDS011;32338;50.430;6.806;2023-04-15T09:51:49;4.65;;;2.35;;
46613;SDS011;32338;50.430;6.806;2023-04-15T09:54:18;5.43;;;2.63;;
46613;SDS011;32338;50.430;6.806;2023-04-15T09:56:46;5.90;;;2.75;;
46613;SDS011;32338;50.430;6.806;2023-04-15T09:59:13;5.82;;;2.97;;
46613;SDS011;32338;50.430;6.806;2023-04-15T10:01:40;5.80;;;2.90;;
46613;SDS011;32338;50.430;6.806;2023-04-15T10:04:08;7.93;;;3.05;;
46613;SDS011;32338;50.430;6.806;2023-04-15T10:06:35;5.32;;;3.20;;
46613;SDS011;32338;50.430;6.806;2023-04-15T10:09:02;4.70;;;3.83;;
46613;SDS011;32338;50.430;6.806;2023-04-15T10:11:31;3.58;;;3.28;;
46613;SDS011;32338;50.430;6.806;2023-04-15T10:14:00;7.05;;;3.58;;
46613;SDS011;32338;50.430;6.806;2023-04-15T10:16:27;9.13;;;4.10;;
46613;SDS011;32338;50.430;6.806;2023-04-15T10:18:57;5.15;;;4.53;;
46613;SDS011;32338;50.430;6.806;2023-04-15T10:21:27;6.53;;;4.57;;
46613;SDS011;32338;50.430;6.806;2023-04-15T10:23:56;10.00;;;5.55;;
46613;SDS011;32338;50.430;6.806;2023-04-15T10:26:24;10.40;;;5.65;;
46613;SDS011;32338;50.430;6.806;2023-04-15T10:28:52;9.85;;;5.85;;
46613;SDS011;32338;50.430;6.806;2023-04-15T10:31:20;9.07;;;5.88;;
46613;SDS011;32338;50.430;6.806;2023-04-15T10:33:48;6.60;;;5.80;;
46613;SDS011;32338;50.430;6.806;2023-04-15T10:36:16;9.68;;;6.75;;
46613;SDS011;32338;50.430;6.806;2023-04-15T10:38:44;10.82;;;7.22;;
46613;SDS011;32338;50.430;6.806;2023-04-15T10:41:12;10.63;;;6.82;;
46613;SDS011;32338;50.430;6.806;2023-04-15T10:43:44;8.80;;;5.85;;
46613;SDS011;32338;50.430;6.806;2023-04-15T10:46:11;9.60;;;6.50;;
46613;SDS011;32338;50.430;6.806;2023-04-15T10:48:46;10.30;;;6.78;;
46613;SDS011;32338;50.430;6.806;2023-04-15T10:51:15;9.13;;;6.13;;
46613;SDS011;32338;50.430;6.806;2023-04-15T10:53:43;11.20;;;6.03;;
46613;SDS011;32338;50.430;6.806;2023-04-15T10:56:09;9.82;;;6.55;;
46613;SDS011;32338;50.430;6.806;2023-04-15T10:58:42;7.03;;;5.68;;
46613;SDS011;32338;50.430;6.806;2023-04-15T11:01:09;8.10;;;5.40;;
46613;SDS011;32338;50.430;6.806;2023-04-15T11:03:36;5.65;;;4.15;;
46613;SDS011;32338;50.430;6.806;2023-04-15T11:06:05;5.50;;;3.33;;
46613;SDS011;32338;50.430;6.806;2023-04-15T11:11:19;6.20;;;2.70;;
46613;SDS011;32338;50.430;6.806;2023-04-15T11:13:49;2.45;;;2.22;;
46613;SDS011;32338;50.430;6.806;2023-04-15T11:16:16;3.72;;;1.90;;
46613;SDS011;32338;50.430;6.806;2023-04-15T11:18:52;5.63;;;1.92;;
46613;SDS011;32338;50.430;6.806;2023-04-15T11:21:20;2.42;;;1.60;;
46613;SDS011;32338;50.430;6.806;2023-04-15T11:23:50;2.08;;;1.40;;
46613;SDS011;32338;50.430;6.806;2023-04-15T11:26:16;1.55;;;1.00;;
46613;SDS011;32338;50.430;6.806;2023-04-15T11:28:43;4.50;;;1.02;;
46613;SDS011;32338;50.430;6.806;2023-04-15T11:31:11;1.48;;;1.10;;
46613;SDS011;32338;50.430;6.806;2023-04-15T11:33:45;1.83;;;1.35;;
46613;SDS011;32338;50.430;6.806;2023-04-15T11:36:13;2.95;;;1.20;;
46613;SDS011;32338;50.430;6.806;2023-04-15T11:38:45;2.10;;;1.50;;
46613;SDS011;32338;50.430;6.806;2023-04-15T11:41:12;1.80;;;1.30;;
46613;SDS011;32338;50.430;6.806;2023-04-15T11:43:38;2.60;;;1.52;;
46613;SDS011;32338;50.430;6.806;2023-04-15T11:46:05;1.92;;;1.50;;
46613;SDS011;32338;50.430;6.806;2023-04-15T11:48:33;2.72;;;2.08;;
46613;SDS011;32338;50.430;6.806;2023-04-15T11:51:01;1.77;;;1.65;;
46613;SDS011;32338;50.430;6.806;2023-04-15T11:53:35;3.90;;;1.77;;
46613;SDS011;32338;50.430;6.806;2023-04-15T11:56:05;2.53;;;1.63;;
46613;SDS011;32338;50.430;6.806;2023-04-15T11:58:33;2.17;;;1.92;;
46613;SDS011;32338;50.430;6.806;2023-04-15T12:01:02;3.47;;;3.10;;
46613;SDS011;32338;50.430;6.806;2023-04-15T12:03:30;3.60;;;3.30;;
46613;SDS011;32338;50.430;6.806;2023-04-15T12:06:01;3.70;;;3.33;;
46613;SDS011;32338;50.430;6.806;2023-04-15T12:11:36;3.80;;;3.20;;
46613;SDS011;32338;50.430;6.806;2023-04-15T12:14:08;4.50;;;4.10;;
46613;SDS011;32338;50.430;6.806;2023-04-15T12:16:38;3.95;;;3.50;;
46613;SDS011;32338;50.430;6.806;2023-04-15T12:19:06;4.20;;;3.38;;
46613;SDS011;32338;50.430;6.806;2023-04-15T12:21:35;2.60;;;2.40;;
46613;SDS011;32338;50.430;6.806;2023-04-15T12:24:04;2.70;;;2.50;;
46613;SDS011;32338;50.430;6.806;2023-04-15T12:26:33;2.67;;;2.47;;
46613;SDS011;32338;50.430;6.806;2023-04-15T12:29:03;3.40;;;2.80;;
46613;SDS011;32338;50.430;6.806;2023-04-15T12:31:32;4.38;;;3.97;;
46613;SDS011;32338;50.430;6.806;2023-04-15T12:33:59;6.00;;;4.47;;
46613;SDS011;32338;50.430;6.806;2023-04-15T12:36:26;5.20;;;4.10;;
46613;SDS011;32338;50.430;6.806;2023-04-15T12:38:54;6.00;;;5.30;;
46613;SDS011;32338;50.430;6.806;2023-04-15T12:41:21;5.47;;;4.97;;
46613;SDS011;32338;50.430;6.806;2023-04-15T12:43:49;5.40;;;4.90;;
46613;SDS011;32338;50.430;6.806;2023-04-15T12:46:16;4.32;;;4.03;;
46613;SDS011;32338;50.430;6.806;2023-04-15T12:48:42;4.80;;;4.40;;
46613;SDS011;32338;50.430;6.806;2023-04-15T12:51:09;6.53;;;4.78;;
46613;SDS011;32338;50.430;6.806;2023-04-15T12:53:36;4.35;;;3.95;;
46613;SDS011;32338;50.430;6.806;2023-04-15T12:56:02;4.95;;;3.80;;
46613;SDS011;32338;50.430;6.806;2023-04-15T12:58:30;4.80;;;4.25;;
46613;SDS011;32338;50.430;6.806;2023-04-15T13:01:01;4.35;;;3.25;;
46613;SDS011;32338;50.430;6.806;2023-04-15T13:03:28;8.57;;;3.33;;
46613;SDS011;32338;50.430;6.806;2023-04-15T13:05:54;4.47;;;4.18;;
46613;SDS011;32338;50.430;6.806;2023-04-15T13:08:21;4.70;;;4.03;;
46613;SDS011;32338;50.430;6.806;2023-04-15T13:10:48;5.50;;;4.30;;
46613;SDS011;32338;50.430;6.806;2023-04-15T13:13:15;4.75;;;4.45;;
46613;SDS011;32338;50.430;6.806;2023-04-15T13:15:41;5.50;;;5.00;;
46613;SDS011;32338;50.430;6.806;2023-04-15T13:18:11;5.47;;;5.07;;
46613;SDS011;32338;50.430;6.806;2023-04-15T13:20:38;5.65;;;5.15;;
46613;SDS011;32338;50.430;6.806;2023-04-15T13:23:04;5.63;;;5.13;;
46613;SDS011;32338;50.430;6.806;2023-04-15T13:25:31;6.10;;;5.70;;
46613;SDS011;32338;50.430;6.806;2023-04-15T13:27:57;8.88;;;8.13;;
46613;SDS011;32338;50.430;6.806;2023-04-15T13:30:25;8.98;;;8.35;;
46613;SDS011;32338;50.430;6.806;2023-04-15T13:32:52;9.52;;;8.70;;
46613;SDS011;32338;50.430;6.806;2023-04-15T13:35:20;8.43;;;7.93;;
46613;SDS011;32338;50.430;6.806;2023-04-15T13:37:46;9.88;;;9.00;;
46613;SDS011;32338;50.430;6.806;2023-04-15T13:40:13;9.52;;;8.63;;
46613;SDS011;32338;50.430;6.806;2023-04-15T13:42:40;9.93;;;9.13;;
46613;SDS011;32338;50.430;6.806;2023-04-15T13:45:07;9.80;;;9.00;;
46613;SDS011;32338;50.430;6.806;2023-04-15T13:47:35;11.15;;;10.05;;
46613;SDS011;32338;50.430;6.806;2023-04-15T13:50:01;10.07;;;9.40;;
46613;SDS011;32338;50.430;6.806;2023-04-15T13:52:30;11.10;;;10.20;;
46613;SDS011;32338;50.430;6.806;2023-04-15T13:54:56;10.43;;;9.45;;
46613;SDS011;32338;50.430;6.806;2023-04-15T13:57:23;10.43;;;9.60;;
46613;SDS011;32338;50.430;6.806;2023-04-15T13:59:50;10.55;;;9.75;;
46613;SDS011;32338;50.430;6.806;2023-04-15T14:02:20;12.05;;;11.05;;
46613;SDS011;32338;50.430;6.806;2023-04-15T14:04:47;13.75;;;12.57;;
46613;SDS011;32338;50.430;6.806;2023-04-15T14:07:13;13.45;;;12.35;;
46613;SDS011;32338;50.430;6.806;2023-04-15T14:09:41;13.30;;;12.15;;
46613;SDS011;32338;50.430;6.806;2023-04-15T14:12:08;13.95;;;12.60;;
46613;SDS011;32338;50.430;6.806;2023-04-15T14:14:35;12.48;;;11.25;;
46613;SDS011;32338;50.430;6.806;2023-04-15T14:17:01;11.82;;;10.82;;
46613;SDS011;32338;50.430;6.806;2023-04-15T14:19:29;11.95;;;10.85;;
46613;SDS011;32338;50.430;6.806;2023-04-15T14:21:55;10.98;;;9.95;;
46613;SDS011;32338;50.430;6.806;2023-04-15T14:24:23;10.32;;;9.40;;
46613;SDS011;32338;50.430;6.806;2023-04-15T14:26:51;9.05;;;8.27;;
46613;SDS011;32338;50.430;6.806;2023-04-15T14:29:17;9.13;;;8.07;;
46613;SDS011;32338;50.430;6.806;2023-04-15T14:31:44;8.80;;;7.90;;
46613;SDS011;32338;50.430;6.806;2023-04-15T14:34:10;7.72;;;7.03;;
46613;SDS011;32338;50.430;6.806;2023-04-15T14:36:37;5.88;;;5.47;;
46613;SDS011;32338;50.430;6.806;2023-04-15T14:39:03;6.38;;;5.88;;
46613;SDS011;32338;50.430;6.806;2023-04-15T14:41:30;5.28;;;4.78;;
46613;SDS011;32338;50.430;6.806;2023-04-15T14:43:58;6.57;;;5.97;;
46613;SDS011;32338;50.430;6.806;2023-04-15T14:46:25;5.30;;;4.90;;
46613;SDS011;32338;50.430;6.806;2023-04-15T14:48:51;6.60;;;6.00;;
46613;SDS011;32338;50.430;6.806;2023-04-15T14:51:18;6.55;;;5.60;;
46613;SDS011;32338;50.430;6.806;2023-04-15T14:53:45;6.03;;;5.45;;